createdAt,value
2022-10-16T00:00:44.086Z,71.77
2022-10-16T00:03:15.666Z,71.74
2022-10-16T00:05:47.108Z,71.43
2022-10-16T00:08:18.609Z,71.31
2022-10-16T00:10:49.965Z,71.32
2022-10-16T00:13:22.082Z,71.34
2022-10-16T00:15:53.563Z,71.57
2022-10-16T00:18:25.564Z,72.01
2022-10-16T00:20:57.062Z,72.36
2022-10-16T00:23:28.551Z,72.44
2022-10-16T00:26:01.045Z,72.71
2022-10-16T00:28:32.722Z,73.27
2022-10-16T00:31:07.087Z,73.86
2022-10-16T00:33:38.937Z,74.28
2022-10-16T00:36:11.822Z,74.48
2022-10-16T00:38:43.539Z,74.30
2022-10-16T00:41:16.669Z,74.12
2022-10-16T00:43:48.946Z,74.10
2022-10-16T00:46:22.560Z,74.07
2022-10-16T00:48:57.306Z,74.36
2022-10-16T00:51:31.232Z,75.15
2022-10-16T00:54:02.666Z,75.31
2022-10-16T00:56:34.519Z,75.52
2022-10-16T00:59:08.868Z,75.69
2022-10-16T01:01:40.742Z,75.85
2022-10-16T01:04:12.191Z,75.81
2022-10-16T01:06:46.117Z,76.03
2022-10-16T01:09:20.152Z,75.83
2022-10-16T01:12:00.744Z,76.27
2022-10-16T01:14:38.042Z,76.72
2022-10-16T01:17:12.003Z,76.94
2022-10-16T01:20:05.201Z,77.30
2022-10-16T01:22:44.943Z,78.01
2022-10-16T01:25:25.464Z,78.22
2022-10-16T01:27:56.870Z,78.02
2022-10-16T01:30:30.243Z,78.01
2022-10-16T01:33:03.540Z,78.19
2022-10-16T01:35:37.928Z,78.16
2022-10-16T01:38:10.599Z,78.33
2022-10-16T01:40:43.808Z,78.24
2022-10-16T01:43:17.326Z,78.54
2022-10-16T01:45:48.730Z,79.11
2022-10-16T01:48:21.326Z,79.05
2022-10-16T01:50:57.300Z,79.20
2022-10-16T01:53:29.042Z,79.46
2022-10-16T01:55:58.917Z,79.70
2022-10-16T01:58:32.141Z,79.59
2022-10-16T02:01:04.021Z,79.56
2022-10-16T02:03:36.022Z,79.59
2022-10-16T02:06:07.599Z,79.72
2022-10-16T02:08:40.095Z,80.05
2022-10-16T02:11:11.672Z,80.46
2022-10-16T02:13:45.971Z,81.45
2022-10-16T02:16:17.537Z,81.59
2022-10-16T02:18:49.140Z,81.35
2022-10-16T02:21:21.628Z,81.21
2022-10-16T02:23:57.002Z,81.48
2022-10-16T02:26:31.361Z,82.68
2022-10-16T02:29:05.912Z,83.48
2022-10-16T02:31:38.165Z,84.33
2022-10-16T02:34:09.577Z,84.64
2022-10-16T02:36:41.326Z,84.72
2022-10-16T02:39:12.620Z,84.98
2022-10-16T02:41:42.803Z,84.87
2022-10-16T02:44:15.263Z,85.70
2022-10-16T02:46:46.711Z,86.21
2022-10-16T02:49:19.387Z,86.33
2022-10-16T02:51:50.972Z,86.16
2022-10-16T02:54:22.738Z,86.07
2022-10-16T02:56:54.264Z,85.87
2022-10-16T02:59:25.558Z,86.11
2022-10-16T03:01:57.467Z,86.21
2022-10-16T03:04:28.924Z,86.17
2022-10-16T03:07:00.715Z,86.33
2022-10-16T03:09:32.229Z,86.45
2022-10-16T03:12:03.807Z,86.53
2022-10-16T03:14:35.318Z,86.83
2022-10-16T03:17:07.100Z,87.00
2022-10-16T03:19:38.579Z,87.32
2022-10-16T03:22:10.139Z,87.70
2022-10-16T03:24:39.941Z,87.95
2022-10-16T03:27:12.335Z,88.53
2022-10-16T03:29:43.779Z,88.50
2022-10-16T03:32:15.587Z,88.62
2022-10-16T03:34:45.225Z,89.09
2022-10-16T03:37:16.846Z,89.86
2022-10-16T03:39:46.541Z,90.23
2022-10-16T03:42:18.140Z,90.89
2022-10-16T03:44:49.546Z,91.22
2022-10-16T03:47:23.205Z,91.32
2022-10-16T03:49:54.755Z,91.50
2022-10-16T03:52:26.265Z,91.93
2022-10-16T03:54:57.865Z,91.81
2022-10-16T03:57:28.007Z,91.83
2022-10-16T03:59:59.915Z,91.93
2022-10-16T04:02:31.580Z,91.83
2022-10-16T04:05:03.119Z,91.97
2022-10-16T04:07:34.637Z,92.17
2022-10-16T04:10:06.687Z,92.47
2022-10-16T04:12:38.103Z,92.93
2022-10-16T04:15:11.235Z,93.26
2022-10-16T04:17:42.632Z,93.61
2022-10-16T04:20:14.093Z,94.11
2022-10-16T04:22:45.550Z,94.26
2022-10-16T04:25:17.020Z,94.28
2022-10-16T04:27:48.617Z,94.20
2022-10-16T04:30:20.282Z,94.09
2022-10-16T04:32:51.693Z,94.19
2022-10-16T04:35:23.565Z,94.52
2022-10-16T04:37:53.391Z,94.60
2022-10-16T04:40:24.970Z,94.76
2022-10-16T04:42:54.968Z,94.36
2022-10-16T04:45:26.339Z,93.95
2022-10-16T04:48:01.438Z,93.84
2022-10-16T04:50:33.371Z,94.21
2022-10-16T04:53:10.956Z,94.05
2022-10-16T04:55:43.356Z,93.94
2022-10-16T04:58:14.820Z,93.62
2022-10-16T05:00:47.414Z,93.30
2022-10-16T05:03:19.212Z,93.09
2022-10-16T05:05:51.369Z,92.79
2022-10-16T05:08:21.194Z,92.61
2022-10-16T05:10:52.968Z,92.45
2022-10-16T05:13:25.654Z,92.45
2022-10-16T05:15:58.452Z,92.37
2022-10-16T05:18:29.981Z,92.15
2022-10-16T05:21:01.492Z,91.74
2022-10-16T05:23:32.993Z,91.33
2022-10-16T05:26:04.420Z,90.83
2022-10-16T05:28:36.018Z,90.23
2022-10-16T05:31:09.955Z,89.78
2022-10-16T05:33:41.390Z,89.28
2022-10-16T05:36:14.158Z,88.42
2022-10-16T05:38:45.667Z,88.01
2022-10-16T05:41:22.523Z,87.53
2022-10-16T05:43:53.887Z,87.43
2022-10-16T05:46:25.431Z,87.14
2022-10-16T05:48:57.308Z,86.57
2022-10-16T05:51:29.186Z,86.30
2022-10-16T05:54:00.941Z,85.64
2022-10-16T05:56:32.437Z,85.43
2022-10-16T05:59:04.107Z,84.69
2022-10-16T06:01:34.167Z,84.69
2022-10-16T06:04:05.756Z,84.27
2022-10-16T06:06:37.905Z,83.31
2022-10-16T06:09:09.530Z,82.64
2022-10-16T06:11:39.559Z,81.18
2022-10-16T06:14:11.964Z,80.94
2022-10-16T06:16:43.578Z,80.76
2022-10-16T06:19:15.118Z,80.19
2022-10-16T06:21:46.699Z,79.12
2022-10-16T06:24:18.127Z,79.10
2022-10-16T06:26:52.337Z,77.08
2022-10-16T06:29:25.502Z,76.04
2022-10-16T06:31:57.171Z,75.87
2022-10-16T06:34:27.170Z,75.42
2022-10-16T06:36:58.732Z,75.02
2022-10-16T06:39:28.629Z,74.02
2022-10-16T06:44:34.548Z,74.35
2022-10-16T06:47:06.726Z,74.28
2022-10-16T06:49:38.838Z,73.30
2022-10-16T06:52:10.259Z,73.44
2022-10-16T06:54:42.497Z,72.33
2022-10-16T06:57:14.501Z,71.82
2022-10-16T06:59:46.820Z,71.24
2022-10-16T07:02:18.686Z,71.50
2022-10-16T07:04:50.143Z,70.97
2022-10-16T07:07:21.720Z,71.26
2022-10-16T07:09:53.332Z,70.00
2022-10-16T07:12:25.092Z,69.87
2022-10-16T07:14:57.587Z,69.49
2022-10-16T07:17:29.022Z,68.80
2022-10-16T07:20:00.968Z,67.69
2022-10-16T07:22:34.067Z,67.97
2022-10-16T07:25:05.780Z,68.23
2022-10-16T07:30:14.695Z,67.20
2022-10-16T07:32:46.663Z,66.41
2022-10-16T07:35:18.299Z,66.00
2022-10-16T07:37:50.225Z,66.15
2022-10-16T07:40:21.908Z,66.03
2022-10-16T07:42:53.902Z,65.65
2022-10-16T07:45:23.678Z,64.95
2022-10-16T07:47:55.778Z,64.14
2022-10-16T07:50:27.261Z,64.43
2022-10-16T07:52:58.909Z,64.45
2022-10-16T07:55:30.377Z,63.21
2022-10-16T07:58:01.957Z,62.64
2022-10-16T08:00:34.175Z,62.66
2022-10-16T08:03:05.882Z,62.48
2022-10-16T08:05:36.535Z,62.61
2022-10-16T08:08:08.503Z,61.51
2022-10-16T08:10:40.730Z,61.47
2022-10-16T08:13:12.257Z,61.15
2022-10-16T08:15:43.777Z,59.53
2022-10-16T08:18:15.769Z,58.94
2022-10-16T08:20:47.376Z,59.24
2022-10-16T08:23:17.312Z,58.72
2022-10-16T08:25:48.639Z,58.16
2022-10-16T08:28:20.156Z,58.07
2022-10-16T08:30:51.707Z,56.09
2022-10-16T08:33:23.527Z,55.89
2022-10-16T08:35:58.059Z,55.16
2022-10-16T08:38:30.106Z,54.96
2022-10-16T08:41:11.217Z,54.69
2022-10-16T08:44:01.047Z,54.30
2022-10-16T08:46:43.286Z,54.02
2022-10-16T08:49:17.509Z,53.52
2022-10-16T08:51:50.693Z,52.79
2022-10-16T08:54:28.785Z,52.40
2022-10-16T08:57:00.670Z,52.64
2022-10-16T08:59:32.424Z,52.91
2022-10-16T09:02:03.210Z,52.32
2022-10-16T09:04:57.092Z,51.03
2022-10-16T09:07:31.308Z,50.26
2022-10-16T09:10:16.744Z,50.36
2022-10-16T09:12:51.726Z,50.92
2022-10-16T09:15:30.387Z,51.45
2022-10-16T09:18:05.069Z,50.45
2022-10-16T09:20:40.328Z,50.25
2022-10-16T09:23:21.963Z,50.23
2022-10-16T09:25:53.768Z,50.09
2022-10-16T09:28:25.783Z,50.00
2022-10-16T09:30:57.538Z,49.48
2022-10-16T09:33:28.747Z,49.06
2022-10-16T09:36:00.827Z,49.75
2022-10-16T09:38:33.239Z,49.94
2022-10-16T09:41:05.496Z,49.00
2022-10-16T09:43:39.455Z,49.18
2022-10-16T09:46:11.789Z,48.38
2022-10-16T09:48:45.810Z,48.71
2022-10-16T09:51:21.258Z,49.27
2022-10-16T09:53:56.305Z,49.06
2022-10-16T09:56:29.025Z,49.25
2022-10-16T09:59:02.262Z,49.29
2022-10-16T10:01:38.204Z,48.47
2022-10-16T10:04:10.108Z,48.12
2022-10-16T10:06:43.596Z,47.82
2022-10-16T10:09:22.859Z,48.59
2022-10-16T10:11:55.956Z,47.63
2022-10-16T10:14:34.615Z,47.48
2022-10-16T10:17:20.357Z,47.68
2022-10-16T10:19:53.700Z,47.80
2022-10-16T10:22:31.458Z,48.15
2022-10-16T10:25:17.430Z,47.61
2022-10-16T10:28:02.834Z,46.99
2022-10-16T10:30:39.130Z,47.40
2022-10-16T10:33:26.731Z,46.70
2022-10-16T10:36:03.651Z,46.30
2022-10-16T10:38:41.415Z,45.61
2022-10-16T10:41:31.265Z,44.91
2022-10-16T10:44:06.948Z,45.13
2022-10-16T10:46:43.398Z,43.82
2022-10-16T10:49:25.790Z,43.91
2022-10-16T10:52:01.881Z,43.18
2022-10-16T10:54:37.580Z,42.99
2022-10-16T10:57:12.730Z,43.13
2022-10-16T10:59:53.521Z,42.61
2022-10-16T11:02:29.002Z,43.03
2022-10-16T11:05:20.445Z,42.93
2022-10-16T11:07:54.506Z,42.68
2022-10-16T11:10:27.242Z,41.86
2022-10-16T11:12:59.875Z,41.93
2022-10-16T11:15:32.031Z,42.01
2022-10-16T11:18:06.468Z,42.06
2022-10-16T11:20:40.064Z,41.08
2022-10-16T11:23:16.930Z,40.90
2022-10-16T11:25:48.547Z,39.77
2022-10-16T11:28:21.557Z,39.35
2022-10-16T11:30:54.878Z,39.46
2022-10-16T11:33:32.726Z,39.50
2022-10-16T11:36:08.887Z,39.63
2022-10-16T11:38:42.519Z,39.58
2022-10-16T11:41:19.826Z,39.66
2022-10-16T11:43:54.682Z,39.28
2022-10-16T11:46:26.432Z,38.77
2022-10-16T11:48:59.997Z,39.01
2022-10-16T11:51:35.103Z,38.94
2022-10-16T11:54:10.661Z,38.71
2022-10-16T11:56:43.159Z,38.98
2022-10-16T11:59:19.383Z,38.85
2022-10-16T12:01:52.744Z,38.88
2022-10-16T12:04:28.737Z,38.64
2022-10-16T12:07:02.315Z,37.48
2022-10-16T12:09:34.747Z,37.16
2022-10-16T12:12:07.764Z,37.02
2022-10-16T12:15:11.141Z,37.19
2022-10-16T12:17:40.623Z,37.25
2022-10-16T12:20:28.409Z,37.66
2022-10-16T12:23:00.671Z,37.01
2022-10-16T12:25:33.545Z,37.32
2022-10-16T12:28:06.688Z,37.38
2022-10-16T12:30:38.607Z,37.94
2022-10-16T12:33:23.698Z,38.14
2022-10-16T12:35:55.708Z,38.23
2022-10-16T12:38:29.901Z,38.15
2022-10-16T12:41:03.230Z,38.53
2022-10-16T12:43:45.280Z,38.58
2022-10-16T12:46:36.919Z,38.35
2022-10-16T12:49:25.747Z,38.20
2022-10-16T12:51:57.956Z,37.78
2022-10-16T12:54:32.755Z,37.58
2022-10-16T12:57:26.282Z,37.85
2022-10-16T13:00:01.631Z,37.90
2022-10-16T13:02:56.359Z,38.08
2022-10-16T13:05:33.219Z,38.50
2022-10-16T13:08:14.444Z,39.01
2022-10-16T13:10:54.239Z,39.23
2022-10-16T13:13:48.528Z,39.35
2022-10-16T13:16:24.927Z,39.45
2022-10-16T13:19:02.821Z,39.18
2022-10-16T13:21:44.156Z,39.27
2022-10-16T13:24:25.357Z,39.50
2022-10-16T13:26:59.969Z,39.64
2022-10-16T13:29:35.133Z,40.01
2022-10-16T13:32:16.865Z,40.23
2022-10-16T13:34:49.810Z,40.50
2022-10-16T13:37:23.253Z,41.04
2022-10-16T13:40:04.272Z,41.53
2022-10-16T13:42:35.992Z,41.87
2022-10-16T13:45:06.072Z,41.87
2022-10-16T13:47:37.650Z,42.03
2022-10-16T13:50:12.642Z,41.92
2022-10-16T13:52:44.234Z,41.95
2022-10-16T13:55:14.806Z,41.98
2022-10-16T13:57:46.804Z,42.46
2022-10-16T14:00:26.243Z,42.20
2022-10-16T14:03:01.645Z,42.25
2022-10-16T14:05:33.113Z,42.70
2022-10-16T14:08:03.172Z,42.62
2022-10-16T14:10:35.958Z,42.81
2022-10-16T14:13:08.430Z,42.92
2022-10-16T14:15:40.039Z,42.91
2022-10-16T14:18:16.434Z,43.10
2022-10-16T14:20:47.938Z,43.25
2022-10-16T14:23:27.495Z,43.57
2022-10-16T14:26:09.156Z,43.86
2022-10-16T14:28:42.360Z,44.26
2022-10-16T14:31:33.103Z,44.84
2022-10-16T14:34:05.637Z,45.82
2022-10-16T14:36:37.648Z,46.54
2022-10-16T14:39:17.747Z,46.89
2022-10-16T14:41:51.758Z,47.80
2022-10-16T14:44:23.836Z,48.48
2022-10-16T14:46:55.626Z,49.23
2022-10-16T14:49:29.520Z,49.61
2022-10-16T14:52:01.533Z,50.39
2022-10-16T14:54:33.064Z,50.98
2022-10-16T14:57:05.855Z,51.56
2022-10-16T14:59:39.313Z,51.71
2022-10-16T15:02:18.402Z,52.29
2022-10-16T15:04:50.368Z,52.61
2022-10-16T15:07:22.651Z,53.63
2022-10-16T15:09:58.233Z,54.06
2022-10-16T15:12:29.663Z,54.59
2022-10-16T15:15:01.181Z,54.96
2022-10-16T15:17:32.698Z,55.63
2022-10-16T15:20:04.526Z,55.89
2022-10-16T15:22:34.298Z,56.46
2022-10-16T15:25:07.539Z,57.31
2022-10-16T15:27:41.518Z,57.90
2022-10-16T15:30:14.872Z,58.40
2022-10-16T15:32:46.386Z,58.93
2022-10-16T15:35:17.978Z,58.85
2022-10-16T15:37:50.056Z,58.75
2022-10-16T15:40:21.875Z,58.56
2022-10-16T15:42:53.233Z,58.76
2022-10-16T15:45:24.739Z,58.86
2022-10-16T15:47:56.139Z,58.87
2022-10-16T15:50:27.505Z,58.71
2022-10-16T15:52:59.088Z,59.14
2022-10-16T15:55:31.165Z,59.45
2022-10-16T15:58:03.093Z,59.72
2022-10-16T16:00:37.338Z,60.14
2022-10-16T16:03:08.933Z,60.61
2022-10-16T16:05:46.601Z,60.90
2022-10-16T16:08:18.999Z,60.94
2022-10-16T16:11:01.017Z,60.97
2022-10-16T16:13:32.559Z,61.12
2022-10-16T16:16:04.241Z,61.08
2022-10-16T16:18:35.758Z,61.32
2022-10-16T16:21:07.819Z,61.10
2022-10-16T16:23:39.299Z,61.40
2022-10-16T16:26:12.200Z,61.66
2022-10-16T16:28:44.214Z,61.71
2022-10-16T16:31:15.772Z,61.53
2022-10-16T16:33:47.269Z,61.48
2022-10-16T16:36:19.127Z,61.28
2022-10-16T16:38:48.901Z,61.26
2022-10-16T16:41:21.569Z,61.40
2022-10-16T16:43:52.972Z,61.55
2022-10-16T16:46:24.571Z,61.37
2022-10-16T16:48:56.751Z,61.42
2022-10-16T16:51:28.277Z,61.30
2022-10-16T16:53:59.885Z,61.43
2022-10-16T16:56:31.496Z,61.44
2022-10-16T16:59:02.927Z,61.87
2022-10-16T17:01:34.512Z,62.03
2022-10-16T17:04:06.596Z,62.12
2022-10-16T17:06:38.345Z,61.80
2022-10-16T17:09:10.683Z,61.95
2022-10-16T17:11:45.709Z,62.42
2022-10-16T17:14:17.163Z,62.56
2022-10-16T17:16:50.048Z,62.77
2022-10-16T17:19:22.041Z,62.23
2022-10-16T17:21:53.891Z,62.43
2022-10-16T17:24:25.349Z,62.46
2022-10-16T17:26:57.529Z,62.75
2022-10-16T17:29:29.078Z,62.82
2022-10-16T17:32:01.134Z,62.72
2022-10-16T17:34:32.920Z,62.64
2022-10-16T17:37:02.585Z,62.52
2022-10-16T17:39:34.392Z,62.72
2022-10-16T17:42:06.520Z,62.89
2022-10-16T17:44:38.257Z,62.97
2022-10-16T17:47:07.950Z,63.43
2022-10-16T17:49:40.079Z,63.79
2022-10-16T17:52:11.762Z,63.75
2022-10-16T17:54:42.458Z,63.67
2022-10-16T17:57:14.050Z,63.49
2022-10-16T17:59:45.876Z,63.30
2022-10-16T18:02:18.770Z,63.35
2022-10-16T18:04:52.344Z,63.31
2022-10-16T18:07:24.105Z,63.48
2022-10-16T18:10:10.305Z,63.50
2022-10-16T18:12:43.002Z,63.70
2022-10-16T18:15:14.623Z,63.87
2022-10-16T18:17:46.468Z,63.81
2022-10-16T18:20:18.041Z,63.94
2022-10-16T18:22:49.464Z,64.59
2022-10-16T18:25:21.102Z,64.49
2022-10-16T18:27:52.761Z,64.52
2022-10-16T18:30:24.519Z,64.61
2022-10-16T18:32:56.198Z,64.61
2022-10-16T18:35:27.857Z,64.48
2022-10-16T18:38:00.929Z,64.12
2022-10-16T18:40:32.344Z,64.18
2022-10-16T18:43:03.872Z,64.17
2022-10-16T18:45:35.391Z,64.48
2022-10-16T18:48:07.657Z,64.43
2022-10-16T18:50:39.427Z,64.56
2022-10-16T18:53:09.369Z,64.54
2022-10-16T18:55:40.999Z,64.65
2022-10-16T18:58:12.552Z,64.86
2022-10-16T19:00:43.983Z,65.02
2022-10-16T19:03:15.622Z,65.20
2022-10-16T19:05:47.705Z,65.25
2022-10-16T19:08:19.446Z,65.05
2022-10-16T19:10:51.183Z,64.99
2022-10-16T19:13:22.858Z,65.07
2022-10-16T19:15:58.517Z,65.52
2022-10-16T19:18:38.871Z,65.58
2022-10-16T19:21:11.080Z,65.85
2022-10-16T19:23:42.623Z,65.96
2022-10-16T19:26:15.903Z,65.94
2022-10-16T19:28:47.543Z,66.02
2022-10-16T19:31:20.229Z,66.09
2022-10-16T19:33:54.536Z,66.29
2022-10-16T19:36:27.446Z,66.37
2022-10-16T19:38:59.667Z,66.45
2022-10-16T19:41:31.092Z,66.67
2022-10-16T19:44:05.081Z,66.41
2022-10-16T19:46:36.684Z,66.46
2022-10-16T19:49:09.589Z,66.62
2022-10-16T19:51:41.366Z,66.63
2022-10-16T19:54:12.892Z,66.95
2022-10-16T19:56:44.384Z,67.54
2022-10-16T19:59:19.277Z,68.03
2022-10-16T20:01:51.201Z,68.23
2022-10-16T20:04:22.764Z,68.12
2022-10-16T20:09:27.573Z,67.68
2022-10-16T20:11:59.314Z,67.47
2022-10-16T20:14:31.115Z,67.30
2022-10-16T20:17:02.577Z,66.92
2022-10-16T20:19:34.557Z,67.05
2022-10-16T20:22:06.403Z,67.01
2022-10-16T20:24:38.129Z,67.00
2022-10-16T20:27:08.084Z,67.03
2022-10-16T20:29:39.673Z,66.97
2022-10-16T20:32:11.095Z,67.15
2022-10-16T20:34:46.603Z,67.20
2022-10-16T20:37:18.306Z,67.42
2022-10-16T20:39:48.456Z,67.32
2022-10-16T20:42:20.130Z,67.46
2022-10-16T20:44:51.290Z,67.56
2022-10-16T20:47:24.081Z,67.40
2022-10-16T20:49:57.481Z,67.17
2022-10-16T20:52:29.014Z,67.12
2022-10-16T20:54:59.059Z,67.03
2022-10-16T20:57:30.947Z,67.46
2022-10-16T21:00:02.427Z,67.69
2022-10-16T21:02:33.922Z,68.28
2022-10-16T21:05:05.694Z,69.18
2022-10-16T21:07:37.553Z,69.67
2022-10-16T21:10:10.880Z,70.23
2022-10-16T21:12:42.540Z,70.78
2022-10-16T21:15:15.715Z,71.27
2022-10-16T21:17:48.780Z,71.80
2022-10-16T21:20:20.738Z,72.65
2022-10-16T21:22:52.231Z,72.91
2022-10-16T21:25:24.147Z,73.42
2022-10-16T21:27:55.965Z,73.53
2022-10-16T21:30:27.696Z,73.68
2022-10-16T21:32:57.674Z,73.71
2022-10-16T21:35:29.580Z,73.74
2022-10-16T21:38:01.958Z,73.85
2022-10-16T21:40:34.520Z,73.82
2022-10-16T21:43:06.073Z,74.12
2022-10-16T21:45:37.819Z,74.32
2022-10-16T21:48:07.977Z,74.57
2022-10-16T21:50:39.653Z,75.17
2022-10-16T21:53:09.550Z,75.01
2022-10-16T21:55:41.134Z,75.31
2022-10-16T21:58:12.648Z,74.43
2022-10-16T22:00:44.225Z,74.18
2022-10-16T22:03:16.265Z,74.45
2022-10-16T22:05:48.235Z,74.48
2022-10-16T22:08:20.318Z,74.22
2022-10-16T22:10:52.041Z,73.97
2022-10-16T22:13:22.808Z,74.06
2022-10-16T22:15:56.252Z,74.30
2022-10-16T22:18:28.237Z,73.72
2022-10-16T22:21:00.118Z,73.68
2022-10-16T22:23:29.964Z,74.00
2022-10-16T22:26:07.057Z,73.64
2022-10-16T22:28:38.914Z,74.37
2022-10-16T22:31:11.793Z,74.33
2022-10-16T22:33:44.106Z,74.22
2022-10-16T22:36:16.450Z,74.00
2022-10-16T22:38:48.489Z,73.82
2022-10-16T22:41:20.347Z,73.38
2022-10-16T22:43:50.522Z,73.67
2022-10-16T22:46:22.837Z,73.81
2022-10-16T22:48:55.852Z,73.78
2022-10-16T22:51:29.646Z,74.16
2022-10-16T22:54:01.882Z,74.30
2022-10-16T22:56:33.248Z,74.08
2022-10-16T22:59:05.181Z,73.78
2022-10-16T23:01:35.846Z,73.65
2022-10-16T23:04:07.541Z,74.56
2022-10-16T23:06:39.104Z,74.41
2022-10-16T23:09:11.630Z,75.00
2022-10-16T23:11:43.398Z,74.98
2022-10-16T23:14:13.383Z,75.41
2022-10-16T23:16:45.342Z,75.82
2022-10-16T23:19:15.697Z,75.69
2022-10-16T23:21:48.041Z,75.77
2022-10-16T23:24:19.864Z,75.70
2022-10-16T23:26:52.002Z,75.50
2022-10-16T23:29:23.784Z,75.68
2022-10-16T23:31:53.713Z,76.04
2022-10-16T23:34:25.489Z,75.81
2022-10-16T23:36:55.629Z,75.48
2022-10-16T23:39:27.278Z,75.27
2022-10-16T23:41:57.177Z,74.59
2022-10-16T23:44:29.001Z,74.57
2022-10-16T23:47:00.962Z,74.22
2022-10-16T23:49:32.826Z,74.13
2022-10-16T23:52:04.844Z,74.09
2022-10-16T23:54:36.886Z,74.49
2022-10-16T23:57:08.533Z,75.13
2022-10-16T23:59:40.238Z,75.82
